Time;durP1;ratioP1;P1;durP2;ratioP2;P2;SDS_P1;SDS_P2;PMS_P1;PMS_P2;Temp;Humidity;BMP_temperature;BMP_pressure;BME280_temperature;BME280_humidity;BME280_pressure;Samples;Min_cycle;Max_cycle;Signal;HPM_P1;HPM_P2
2023/07/20 00:01:32;;;;;;;2.80;2.30;;;;;;;19.76;46.92;97777.72;5017088;28;20480;-83
2023/07/20 00:03:58;;;;;;;2.50;2.30;;;;;;;19.99;46.39;97783.84;5015388;28;20473;-83
2023/07/20 00:06:27;;;;;;;2.43;2.13;;;;;;;19.94;46.51;97779.16;5017723;28;20486;-83
2023/07/20 00:08:54;;;;;;;2.43;2.13;;;;;;;19.94;46.04;97792.06;5013445;28;20500;-84
2023/07/20 00:11:21;;;;;;;2.40;2.20;;;;;;;19.85;46.12;97780.75;5018520;28;20456;-84
2023/07/20 00:13:48;;;;;;;2.30;2.10;;;;;;;19.96;45.97;97790.69;5014993;28;20517;-83
2023/07/20 00:16:14;;;;;;;2.43;2.23;;;;;;;20.06;45.69;97788.00;5012288;28;20461;-84
2023/07/20 00:18:42;;;;;;;2.37;2.17;;;;;;;19.81;45.96;97784.31;5012373;28;20453;-84
2023/07/20 00:21:09;;;;;;;2.73;2.53;;;;;;;19.71;46.60;97791.41;5018409;28;20546;-84
2023/07/20 00:23:36;;;;;;;2.50;2.30;;;;;;;19.45;46.98;97795.91;5012381;28;21035;-83
2023/07/20 00:26:03;;;;;;;3.00;2.07;;;;;;;19.37;46.97;97790.91;5013685;28;20480;-83
2023/07/20 00:28:30;;;;;;;2.50;2.20;;;;;;;19.36;47.25;97800.22;5012082;28;20809;-83
2023/07/20 00:30:57;;;;;;;2.60;2.37;;;;;;;19.31;47.54;97797.44;5014675;28;20486;-84
2023/07/20 00:33:24;;;;;;;2.90;2.27;;;;;;;19.27;48.40;97790.00;5015210;28;20516;-84
2023/07/20 00:35:52;;;;;;;2.97;2.33;;;;;;;19.04;48.40;97783.81;5013718;28;20490;-84
2023/07/20 00:38:20;;;;;;;3.00;2.47;;;;;;;19.17;48.25;97790.75;5014368;28;20448;-84
2023/07/20 00:40:48;;;;;;;4.57;2.40;;;;;;;19.14;48.19;97791.31;5020207;28;20466;-84
2023/07/20 00:43:15;;;;;;;2.20;2.00;;;;;;;19.13;48.30;97800.63;5016981;28;20492;-84
2023/07/20 00:45:42;;;;;;;2.60;2.40;;;;;;;19.33;48.05;97791.69;5018109;28;20842;-84
2023/07/20 00:48:09;;;;;;;2.57;2.33;;;;;;;19.06;48.10;97789.88;5012516;28;20460;-84
2023/07/20 00:50:36;;;;;;;2.67;2.47;;;;;;;18.77;48.84;97808.56;5012435;28;20457;-84
2023/07/20 00:53:05;;;;;;;2.70;2.27;;;;;;;18.83;49.03;97800.38;5012578;28;20826;-83
2023/07/20 00:55:32;;;;;;;2.37;2.10;;;;;;;18.56;49.41;97797.59;5015033;28;21058;-83
2023/07/20 00:58:02;;;;;;;2.27;2.07;;;;;;;18.66;49.41;97795.84;5013387;28;20456;-84
2023/07/20 01:00:29;;;;;;;3.80;2.80;;;;;;;18.81;48.93;97794.31;5012449;28;21025;-84
2023/07/20 01:02:56;;;;;;;2.80;2.30;;;;;;;18.69;49.06;97800.81;5016891;28;20492;-84
2023/07/20 01:05:26;;;;;;;2.60;2.17;;;;;;;18.65;49.16;97796.91;5020004;28;20457;-83
2023/07/20 01:07:56;;;;;;;2.50;2.30;;;;;;;18.60;49.26;97796.88;5025388;28;20453;-83
2023/07/20 01:10:30;;;;;;;3.63;2.47;;;;;;;18.42;49.71;97806.25;5022395;28;20464;-84
2023/07/20 01:12:57;;;;;;;2.67;2.10;;;;;;;18.46;49.32;97801.94;5021006;28;20476;-84
2023/07/20 01:15:24;;;;;;;2.60;2.10;;;;;;;18.53;49.47;97804.44;5024161;28;20478;-84
2023/07/20 01:17:51;;;;;;;2.40;2.10;;;;;;;18.54;49.52;97791.56;5020419;28;20467;-84
2023/07/20 01:20:20;;;;;;;2.07;1.90;;;;;;;18.51;49.46;97792.94;5021217;28;20463;-84
2023/07/20 01:23:13;;;;;;;2.70;2.00;;;;;;;18.35;49.84;97791.94;5020189;28;20973;-84
2023/07/20 01:26:01;;;;;;;2.00;1.70;;;;;;;18.34;49.92;97797.66;5022124;28;20535;-84
2023/07/20 01:28:38;;;;;;;3.83;1.80;;;;;;;18.23;50.36;97801.38;5014953;28;20984;-84
2023/07/20 01:31:19;;;;;;;3.93;2.17;;;;;;;18.15;50.61;97799.13;5017862;28;20447;-84
2023/07/20 01:33:47;;;;;;;3.87;2.10;;;;;;;18.19;50.55;97805.75;5022061;28;20559;-84
2023/07/20 01:36:15;;;;;;;3.13;2.23;;;;;;;18.10;50.70;97792.50;5015056;28;20452;-84
2023/07/20 01:38:42;;;;;;;3.50;2.20;;;;;;;18.15;50.61;97794.47;5010373;28;20463;-84
2023/07/20 01:41:10;;;;;;;2.60;2.30;;;;;;;18.13;50.70;97802.09;5009889;28;21275;-84
2023/07/20 01:43:36;;;;;;;3.67;2.70;;;;;;;18.06;50.97;97798.72;5013782;28;20992;-83
2023/07/20 01:46:03;;;;;;;4.30;2.17;;;;;;;17.99;51.31;97801.66;5015768;28;20526;-84
2023/07/20 01:48:32;;;;;;;2.50;2.03;;;;;;;17.96;51.40;97807.66;5017615;28;20469;-84
2023/07/20 01:50:58;;;;;;;2.50;2.30;;;;;;;17.93;51.49;97797.19;5015272;28;20870;-84
2023/07/20 01:53:25;;;;;;;3.63;1.87;;;;;;;17.73;52.15;97802.44;5010395;28;20567;-83
2023/07/20 01:55:54;;;;;;;2.67;2.10;;;;;;;17.93;51.80;97802.69;5012810;28;20483;-82
2023/07/20 01:58:21;;;;;;;3.13;2.10;;;;;;;17.85;52.14;97800.41;5010050;28;20455;-83
2023/07/20 02:00:48;;;;;;;3.10;2.03;;;;;;;17.64;52.51;97809.38;5015063;28;20518;-83
2023/07/20 02:03:15;;;;;;;2.57;2.03;;;;;;;17.63;52.53;97802.25;5018421;28;20575;-83
2023/07/20 02:05:44;;;;;;;2.60;2.40;;;;;;;17.58;52.87;97807.66;5017705;28;20457;-83
2023/07/20 02:08:11;;;;;;;2.43;2.23;;;;;;;17.53;53.10;97807.59;5010984;28;20456;-84
2023/07/20 02:10:39;;;;;;;2.97;2.20;;;;;;;17.59;53.04;97803.84;5019579;28;20453;-84
2023/07/20 02:13:05;;;;;;;2.60;1.97;;;;;;;17.52;53.13;97800.47;5012288;28;20469;-84
2023/07/20 02:15:32;;;;;;;3.80;2.40;;;;;;;17.32;53.76;97801.00;5010009;28;20449;-84
2023/07/20 02:17:59;;;;;;;2.50;2.10;;;;;;;17.36;53.68;97810.38;5015714;28;21315;-84
2023/07/20 02:20:27;;;;;;;3.47;2.13;;;;;;;17.39;53.66;97802.47;5010316;28;20864;-84
2023/07/20 02:22:55;;;;;;;3.60;2.10;;;;;;;17.30;54.08;97800.41;5018063;28;20499;-84
2023/07/20 02:25:22;;;;;;;2.60;2.40;;;;;;;17.34;53.89;97805.13;5011215;28;20539;-84
2023/07/20 02:27:49;;;;;;;4.73;2.53;;;;;;;17.32;54.06;97799.09;5015758;28;21027;-84
2023/07/20 02:30:17;;;;;;;4.07;2.50;;;;;;;17.42;53.96;97796.50;5019059;28;20460;-84
2023/07/20 02:32:45;;;;;;;6.60;2.30;;;;;;;17.36;54.33;97797.50;5016838;28;20487;-84
2023/07/20 02:35:12;;;;;;;3.20;2.30;;;;;;;17.02;55.26;97801.34;5014897;28;21007;-83
2023/07/20 02:37:38;;;;;;;2.53;2.00;;;;;;;17.15;55.15;97805.69;5012367;28;20448;-84
2023/07/20 02:40:08;;;;;;;3.00;2.80;;;;;;;16.90;55.95;97797.88;5021859;28;20457;-84
2023/07/20 02:42:35;;;;;;;2.60;2.20;;;;;;;16.76;56.38;97803.69;5023025;28;20491;-84
2023/07/20 02:45:04;;;;;;;2.63;2.40;;;;;;;16.75;56.75;97807.50;5022086;28;20452;-84
2023/07/20 02:47:31;;;;;;;3.53;2.70;;;;;;;16.73;56.80;97806.91;5017825;28;21015;-84
2023/07/20 02:49:57;;;;;;;3.07;2.80;;;;;;;16.61;57.26;97816.22;5019061;28;20495;-84
2023/07/20 02:52:24;;;;;;;2.70;2.50;;;;;;;16.54;57.57;97810.09;5021740;28;21064;-84
2023/07/20 02:54:52;;;;;;;2.93;2.20;;;;;;;16.58;57.66;97812.06;5018894;28;20463;-84
2023/07/20 02:57:20;;;;;;;4.70;2.37;;;;;;;16.63;57.32;97814.88;5026867;28;20919;-84
2023/07/20 02:59:46;;;;;;;2.97;2.40;;;;;;;16.47;57.96;97821.16;5023125;28;20440;-83
2023/07/20 03:02:13;;;;;;;4.57;2.77;;;;;;;16.49;58.19;97829.13;5019260;28;20511;-83
2023/07/20 03:04:40;;;;;;;3.70;2.50;;;;;;;16.42;58.03;97829.28;5023870;28;20456;-84
2023/07/20 03:07:07;;;;;;;3.20;2.73;;;;;;;16.31;58.72;97820.03;5021433;28;20507;-83
2023/07/20 03:09:34;;;;;;;3.07;2.77;;;;;;;16.27;58.94;97821.59;5021434;28;20542;-83
2023/07/20 03:12:02;;;;;;;3.10;2.50;;;;;;;16.27;58.70;97820.78;5023397;28;20461;-83
2023/07/20 03:14:30;;;;;;;3.17;2.70;;;;;;;16.24;59.01;97824.00;5022260;28;20452;-84
2023/07/20 03:16:59;;;;;;;2.80;2.60;;;;;;;16.35;58.68;97834.88;5025183;28;20460;-84
2023/07/20 03:19:25;;;;;;;2.60;2.40;;;;;;;16.39;58.34;97830.59;5017794;28;20456;-83
2023/07/20 03:21:52;;;;;;;2.70;2.50;;;;;;;16.42;58.44;97834.72;5013799;28;20541;-84
2023/07/20 03:24:19;;;;;;;3.47;2.40;;;;;;;16.33;58.62;97830.72;5013264;28;20496;-84
2023/07/20 03:26:46;;;;;;;2.67;2.47;;;;;;;16.27;58.84;97831.69;5017964;28;20463;-84
2023/07/20 03:29:13;;;;;;;2.90;2.40;;;;;;;16.28;58.98;97827.88;5017898;28;20584;-84
2023/07/20 03:31:41;;;;;;;2.37;2.17;;;;;;;16.36;58.67;97833.81;5019998;28;20449;-84
2023/07/20 03:34:08;;;;;;;3.27;2.57;;;;;;;16.21;59.26;97832.69;5018437;28;20464;-84
2023/07/20 03:36:35;;;;;;;3.20;2.60;;;;;;;16.48;58.30;97835.66;5013116;28;20461;-84
2023/07/20 03:39:02;;;;;;;3.63;2.50;;;;;;;16.40;58.75;97842.34;5013951;28;20547;-84
2023/07/20 03:41:29;;;;;;;3.60;2.83;;;;;;;16.21;59.38;97838.16;5012085;28;20498;-89
2023/07/20 03:43:56;;;;;;;2.93;2.13;;;;;;;16.16;59.60;97832.59;5012581;28;20495;-83
2023/07/20 03:46:23;;;;;;;5.07;2.77;;;;;;;16.10;59.80;97832.47;5013314;28;20508;-86
2023/07/20 03:48:51;;;;;;;2.87;2.67;;;;;;;16.10;59.99;97835.22;5019936;28;21019;-82
2023/07/20 03:51:18;;;;;;;2.30;2.10;;;;;;;16.04;60.11;97844.38;5014525;28;20452;-82
2023/07/20 03:53:45;;;;;;;2.70;2.50;;;;;;;16.05;60.16;97845.19;5013476;28;20484;-82
2023/07/20 03:56:12;;;;;;;3.20;2.90;;;;;;;16.07;60.06;97843.88;5012737;28;20453;-82
2023/07/20 03:58:38;;;;;;;2.73;2.30;;;;;;;16.11;59.94;97836.88;5014619;28;20515;-83
2023/07/20 04:01:05;;;;;;;2.60;2.30;;;;;;;16.08;59.93;97834.63;5014517;28;21043;-83
2023/07/20 04:03:32;;;;;;;3.20;2.90;;;;;;;16.22;59.60;97846.09;5012407;28;20599;-82
2023/07/20 04:06:00;;;;;;;3.10;2.67;;;;;;;16.28;59.47;97833.34;5016428;28;20480;-82
2023/07/20 04:08:27;;;;;;;3.90;2.40;;;;;;;16.09;60.01;97847.19;5011586;28;20461;-82
2023/07/20 04:10:54;;;;;;;3.20;2.90;;;;;;;16.04;60.47;97855.28;5017876;28;20459;-82
2023/07/20 04:13:21;;;;;;;2.77;2.10;;;;;;;15.90;60.74;97843.00;5024722;28;20500;-81
2023/07/20 04:15:48;;;;;;;2.77;2.37;;;;;;;16.06;60.43;97846.84;5029663;28;20547;-81
2023/07/20 04:18:14;;;;;;;2.60;2.40;;;;;;;16.10;60.22;97848.88;5024941;28;20556;-84
2023/07/20 04:20:41;;;;;;;4.43;2.73;;;;;;;16.06;60.35;97842.22;5016763;28;20469;-82
2023/07/20 04:23:10;;;;;;;4.17;2.83;;;;;;;16.30;59.64;97859.34;5020604;28;21062;-81
2023/07/20 04:25:39;;;;;;;4.03;3.00;;;;;;;16.23;59.77;97852.41;5024252;28;21011;-81
2023/07/20 04:28:09;;;;;;;3.10;2.80;;;;;;;16.27;60.07;97856.28;5023259;28;20940;-82
2023/07/20 04:30:37;;;;;;;3.30;2.20;;;;;;;16.26;59.89;97852.72;5016799;28;20472;-81
2023/07/20 04:33:04;;;;;;;4.27;2.90;;;;;;;16.22;60.05;97856.19;5015063;28;20487;-81
2023/07/20 04:35:50;;;;;;;2.50;2.30;;;;;;;16.19;60.28;97851.22;5017652;28;20464;-80
2023/07/20 04:38:20;;;;;;;3.30;2.53;;;;;;;16.12;60.71;97854.91;5018363;28;20467;-83
2023/07/20 04:40:48;;;;;;;3.93;3.30;;;;;;;16.04;61.00;97855.28;5016291;28;20480;-83
2023/07/20 04:43:16;;;;;;;3.70;2.50;;;;;;;16.19;60.66;97852.06;5017838;28;20493;-84
2023/07/20 04:45:43;;;;;;;4.00;2.83;;;;;;;16.36;60.23;97847.47;5019913;28;20444;-83
2023/07/20 04:48:12;;;;;;;4.07;3.00;;;;;;;16.31;60.34;97849.25;5013607;28;20972;-84
2023/07/20 04:50:39;;;;;;;3.73;2.70;;;;;;;16.46;60.22;97857.75;5013016;28;20545;-82
2023/07/20 04:53:06;;;;;;;3.30;3.00;;;;;;;16.38;60.42;97844.47;5018292;28;20476;-82
2023/07/20 04:55:34;;;;;;;4.43;2.37;;;;;;;16.52;60.00;97858.69;5020670;28;20529;-82
2023/07/20 04:58:01;;;;;;;3.20;2.90;;;;;;;16.52;60.20;97856.78;5014771;28;20948;-83
2023/07/20 05:00:28;;;;;;;3.67;2.47;;;;;;;16.68;59.58;97853.28;5017387;28;20495;-81
2023/07/20 05:02:55;;;;;;;2.73;2.27;;;;;;;16.76;59.37;97861.09;5027610;28;20487;-83
2023/07/20 05:05:22;;;;;;;3.63;2.50;;;;;;;16.92;58.96;97866.81;5023836;28;20464;-80
2023/07/20 05:07:49;;;;;;;3.20;2.40;;;;;;;17.00;58.65;97864.50;5021396;28;21149;-81
2023/07/20 05:10:16;;;;;;;3.20;2.73;;;;;;;17.00;58.70;97861.75;5019321;28;20508;-81
2023/07/20 05:12:44;;;;;;;2.60;2.03;;;;;;;16.99;58.98;97851.06;5022670;28;20526;-79
2023/07/20 05:15:11;;;;;;;2.70;2.50;;;;;;;17.12;58.74;97850.75;5020765;28;20964;-81
2023/07/20 05:17:39;;;;;;;4.60;2.53;;;;;;;17.28;58.29;97855.38;5025873;28;20428;-82
2023/07/20 05:20:09;;;;;;;3.07;2.50;;;;;;;17.27;58.58;97859.19;5023164;28;20480;-82
2023/07/20 05:22:39;;;;;;;2.77;2.40;;;;;;;17.29;58.59;97857.03;5023057;28;20485;-83
2023/07/20 05:25:07;;;;;;;3.10;2.50;;;;;;;17.48;58.52;97859.53;5043823;28;20951;-82
2023/07/20 05:27:35;;;;;;;4.13;2.50;;;;;;;17.56;58.05;97857.16;5032254;28;20457;-84
2023/07/20 05:30:04;;;;;;;5.83;2.60;;;;;;;17.72;57.41;97858.25;5026409;28;20455;-83
2023/07/20 05:32:31;;;;;;;5.50;2.53;;;;;;;17.56;57.80;97857.16;5023898;28;20484;-83
2023/07/20 05:34:58;;;;;;;2.87;2.57;;;;;;;17.66;57.73;97859.25;5030703;28;21006;-83
2023/07/20 05:37:25;;;;;;;2.87;2.60;;;;;;;17.73;57.56;97852.53;5030126;28;20436;-83
2023/07/20 05:39:52;;;;;;;2.33;2.13;;;;;;;18.04;56.63;97855.69;5027459;28;20487;-84
2023/07/20 05:42:18;;;;;;;4.80;2.20;;;;;;;17.93;57.03;97853.88;5030479;28;20480;-84
2023/07/20 05:44:47;;;;;;;5.17;2.80;;;;;;;18.13;56.59;97851.41;5035130;28;20488;-83
2023/07/20 05:47:15;;;;;;;4.17;2.60;;;;;;;18.25;56.17;97851.25;5041894;28;20529;-81
2023/07/20 05:49:42;;;;;;;3.00;2.43;;;;;;;18.41;55.83;97853.09;5025980;28;20920;-82
2023/07/20 05:52:09;;;;;;;2.13;1.93;;;;;;;18.48;55.56;97858.41;5027637;28;20522;-82
2023/07/20 05:54:35;;;;;;;3.70;2.20;;;;;;;18.59;55.42;97852.75;5026776;28;20461;-83
2023/07/20 05:57:02;;;;;;;2.97;2.50;;;;;;;18.88;54.68;97852.50;5026641;28;20452;-82
2023/07/20 05:59:30;;;;;;;2.73;2.33;;;;;;;19.01;53.66;97841.13;5028696;28;20507;-82
2023/07/20 06:01:57;;;;;;;3.33;2.30;;;;;;;19.08;53.80;97852.72;5022873;28;20472;-82
2023/07/20 06:04:25;;;;;;;3.60;2.70;;;;;;;19.24;53.34;97856.38;5026519;28;20516;-82
2023/07/20 06:06:52;;;;;;;4.60;2.13;;;;;;;19.16;53.62;97854.97;5022511;28;20460;-83
2023/07/20 06:09:19;;;;;;;4.17;2.67;;;;;;;19.19;53.90;97851.69;5027607;28;20440;-83
2023/07/20 06:11:46;;;;;;;3.40;2.60;;;;;;;19.28;52.81;97852.88;5024254;28;20472;-83
2023/07/20 06:14:12;;;;;;;3.20;2.70;;;;;;;19.29;53.12;97854.53;5024136;28;20449;-84
2023/07/20 06:16:39;;;;;;;2.57;2.37;;;;;;;19.33;52.62;97858.41;5022535;28;21058;-83
2023/07/20 06:19:06;;;;;;;3.60;2.20;;;;;;;19.49;51.91;97861.25;5025210;28;20535;-83
2023/07/20 06:21:34;;;;;;;3.03;2.17;;;;;;;19.36;51.75;97863.38;5023049;28;20480;-83
2023/07/20 06:24:01;;;;;;;2.43;2.23;;;;;;;19.50;51.67;97871.94;5023004;28;20485;-84
2023/07/20 06:26:28;;;;;;;3.03;2.33;;;;;;;19.66;51.17;97861.94;5021342;28;20452;-84
2023/07/20 06:28:55;;;;;;;2.53;2.33;;;;;;;19.70;50.84;97860.34;5023920;28;20578;-83
2023/07/20 06:31:22;;;;;;;3.33;2.37;;;;;;;19.90;50.22;97854.13;5023751;28;20538;-83
2023/07/20 06:33:48;;;;;;;4.17;2.40;;;;;;;19.66;50.87;97859.22;5022162;28;20454;-83
2023/07/20 06:36:18;;;;;;;4.53;2.83;;;;;;;19.80;50.43;97868.66;5020781;28;20502;-83
2023/07/20 06:38:47;;;;;;;2.60;2.40;;;;;;;20.19;49.96;97857.28;5021619;28;20912;-84
2023/07/20 06:41:14;;;;;;;3.93;2.60;;;;;;;20.58;49.08;97866.78;5018432;28;20463;-83
2023/07/20 06:43:41;;;;;;;2.30;2.10;;;;;;;19.96;50.22;97858.56;5020797;28;20523;-83
2023/07/20 06:46:08;;;;;;;2.87;2.17;;;;;;;19.75;51.00;97854.88;5019806;28;20461;-83
2023/07/20 06:48:35;;;;;;;2.93;2.10;;;;;;;19.79;51.02;97853.25;5020925;28;20492;-83
2023/07/20 06:51:02;;;;;;;2.23;2.00;;;;;;;19.77;51.49;97856.25;5018401;28;20459;-84
2023/07/20 06:53:29;;;;;;;3.50;2.57;;;;;;;20.03;51.33;97843.47;5017844;28;20810;-84
2023/07/20 06:55:57;;;;;;;2.60;2.40;;;;;;;19.80;51.60;97852.16;5017423;28;20955;-87
2023/07/20 06:58:24;;;;;;;3.87;2.20;;;;;;;20.02;51.07;97850.06;5018151;28;20797;-87
2023/07/20 07:00:51;;;;;;;3.53;2.43;;;;;;;20.26;50.88;97853.19;5015887;28;20503;-87
2023/07/20 07:03:18;;;;;;;2.83;2.30;;;;;;;20.14;50.98;97858.09;5020762;28;20517;-88
2023/07/20 07:05:45;;;;;;;3.10;2.27;;;;;;;20.26;50.85;97852.34;5021848;28;20550;-88
2023/07/20 07:08:12;;;;;;;3.27;2.33;;;;;;;20.41;49.86;97856.03;5019325;28;20812;-87
2023/07/20 07:10:39;;;;;;;4.53;2.17;;;;;;;20.48;49.46;97854.94;5021869;28;20836;-88
2023/07/20 07:13:07;;;;;;;4.13;2.50;;;;;;;20.72;49.54;97851.44;5023834;28;20527;-87
2023/07/20 07:15:34;;;;;;;6.00;2.20;;;;;;;20.85;49.34;97850.06;5021590;28;20459;-87
2023/07/20 07:18:03;;;;;;;4.43;2.23;;;;;;;20.98;48.49;97862.47;5032743;28;20466;-88
2023/07/20 07:20:30;;;;;;;5.00;2.30;;;;;;;21.32;47.89;97854.53;5023319;28;20460;-87
2023/07/20 07:22:57;;;;;;;6.07;2.80;;;;;;;21.52;47.22;97853.69;5022590;28;21028;-87
2023/07/20 07:25:24;;;;;;;3.90;2.30;;;;;;;21.21;47.24;97850.97;5020557;28;20836;-87
2023/07/20 07:27:52;;;;;;;3.13;2.30;;;;;;;20.55;49.75;97844.50;5024890;28;20447;-87
2023/07/20 07:30:20;;;;;;;2.50;2.30;;;;;;;20.83;49.21;97851.44;5020914;28;20537;-87
2023/07/20 07:32:47;;;;;;;2.23;2.03;;;;;;;20.67;49.57;97845.94;5021595;28;20597;-87
2023/07/20 07:35:14;;;;;;;3.17;2.50;;;;;;;21.36;47.89;97844.63;5018600;28;20559;-87
2023/07/20 07:37:41;;;;;;;2.40;2.17;;;;;;;22.22;44.96;97840.88;5018097;28;20841;-86
2023/07/20 07:40:09;;;;;;;6.60;2.57;;;;;;;21.92;46.60;97841.78;5024303;28;20506;-88
2023/07/20 07:42:36;;;;;;;2.10;1.90;;;;;;;22.41;45.28;97844.66;5017676;28;20508;-87
2023/07/20 07:45:03;;;;;;;2.37;2.17;;;;;;;22.49;44.55;97840.47;5020564;28;20472;-87
2023/07/20 07:47:31;;;;;;;3.60;2.47;;;;;;;23.09;43.06;97831.81;5019244;28;20450;-87
2023/07/20 07:49:58;;;;;;;2.80;2.53;;;;;;;23.61;42.83;97827.53;5023353;28;20445;-88
2023/07/20 07:52:25;;;;;;;2.87;2.10;;;;;;;22.80;43.61;97833.69;5018496;28;20471;-87
2023/07/20 07:54:52;;;;;;;4.30;2.20;;;;;;;22.87;43.29;97838.88;5028355;28;20488;-87
2023/07/20 07:57:19;;;;;;;4.20;2.60;;;;;;;23.29;42.61;97832.75;5029410;28;20457;-87
2023/07/20 07:59:45;;;;;;;2.90;2.20;;;;;;;23.02;42.38;97844.31;5015845;28;20454;-87
2023/07/20 08:02:12;;;;;;;3.97;2.23;;;;;;;22.52;43.72;97851.75;5018727;28;20991;-87
2023/07/20 08:04:40;;;;;;;3.60;2.87;;;;;;;21.69;44.93;97844.03;5017150;28;20514;-87
2023/07/20 08:07:07;;;;;;;2.73;2.30;;;;;;;21.58;45.92;97847.06;5023227;28;20531;-87
2023/07/20 08:09:34;;;;;;;3.00;2.70;;;;;;;21.74;45.67;97843.22;5019576;28;20472;-87
2023/07/20 08:12:01;;;;;;;3.63;2.10;;;;;;;21.80;44.57;97850.34;5014877;28;20473;-87
2023/07/20 08:14:28;;;;;;;3.23;2.37;;;;;;;22.12;43.55;97850.00;5017196;28;20522;-87
2023/07/20 08:16:54;;;;;;;2.97;1.93;;;;;;;22.63;42.63;97841.50;5012994;28;20460;-88
2023/07/20 08:19:21;;;;;;;2.73;2.03;;;;;;;23.40;40.93;97835.13;5018406;28;20484;-87
2023/07/20 08:21:49;;;;;;;3.20;2.30;;;;;;;23.33;40.37;97831.91;5014801;28;20563;-88
2023/07/20 08:24:16;;;;;;;3.03;2.20;;;;;;;24.82;38.30;97831.84;5018754;28;20495;-87
2023/07/20 08:26:43;;;;;;;4.47;2.33;;;;;;;24.79;37.14;97828.56;5013696;28;20548;-87
2023/07/20 08:29:10;;;;;;;2.30;1.90;;;;;;;25.01;37.26;97821.66;5024568;28;20987;-87
2023/07/20 08:31:38;;;;;;;3.33;2.00;;;;;;;25.26;36.55;97831.47;5017620;28;20465;-87
2023/07/20 08:34:05;;;;;;;5.13;2.30;;;;;;;23.27;40.00;97835.00;5025162;28;20483;-87
2023/07/20 08:36:32;;;;;;;2.90;2.33;;;;;;;23.07;41.00;97841.47;5013783;28;20983;-87
2023/07/20 08:39:03;;;;;;;2.30;2.10;;;;;;;24.65;38.45;97827.69;5023531;28;20528;-87
2023/07/20 08:41:30;;;;;;;2.70;2.37;;;;;;;26.36;34.33;97838.03;5015586;28;20512;-87
2023/07/20 08:43:58;;;;;;;2.63;2.00;;;;;;;26.27;33.20;97835.16;5018617;28;20481;-87
2023/07/20 08:46:27;;;;;;;2.83;2.00;;;;;;;25.77;33.82;97831.44;5018101;28;20507;-87
2023/07/20 08:48:55;;;;;;;2.87;2.10;;;;;;;24.52;35.95;97828.41;5028148;28;20532;-87
2023/07/20 08:51:22;;;;;;;3.40;1.87;;;;;;;24.84;35.60;97835.16;5029065;28;20536;-87
2023/07/20 08:53:50;;;;;;;2.33;2.10;;;;;;;24.75;36.86;97833.06;5032741;28;20487;-87
2023/07/20 08:56:21;;;;;;;2.93;2.20;;;;;;;24.57;37.46;97828.34;5027546;28;20453;-87
2023/07/20 08:58:48;;;;;;;3.60;2.17;;;;;;;24.83;36.74;97831.56;5028950;28;20458;-87
2023/07/20 09:01:15;;;;;;;3.67;1.97;;;;;;;25.95;34.20;97827.75;5041773;28;20507;-86
2023/07/20 09:03:43;;;;;;;2.07;1.87;;;;;;;26.02;33.37;97833.69;5035847;28;20542;-86
2023/07/20 09:06:09;;;;;;;2.43;2.23;;;;;;;24.79;35.24;97834.09;5027153;28;20460;-87
2023/07/20 09:08:39;;;;;;;4.17;2.10;;;;;;;24.27;36.48;97832.34;5028616;28;20441;-87
2023/07/20 09:11:06;;;;;;;4.07;2.23;;;;;;;25.15;35.46;97830.81;5024802;28;20471;-87
2023/07/20 09:13:34;;;;;;;4.53;2.53;;;;;;;26.23;34.35;97823.03;5022214;28;20949;-87
2023/07/20 09:16:02;;;;;;;3.57;1.90;;;;;;;26.71;32.62;97830.91;5021240;28;20510;-87
2023/07/20 09:18:30;;;;;;;4.33;2.07;;;;;;;26.01;33.33;97834.00;5020319;28;20452;-87
2023/07/20 09:21:00;;;;;;;2.60;2.13;;;;;;;26.60;33.29;97824.78;5025803;28;20510;-87
2023/07/20 09:23:32;;;;;;;2.60;2.10;;;;;;;26.11;33.88;97834.63;5026904;28;20460;-87
2023/07/20 09:25:59;;;;;;;2.77;2.10;;;;;;;25.49;35.08;97840.78;5023550;28;20984;-87
2023/07/20 09:28:25;;;;;;;2.30;2.10;;;;;;;24.63;35.86;97829.09;5019660;28;20454;-87
2023/07/20 09:30:55;;;;;;;3.70;2.10;;;;;;;26.43;32.89;97816.25;5023942;28;20543;-87
2023/07/20 09:33:41;;;;;;;2.20;1.90;;;;;;;27.09;32.08;97826.69;5020493;28;20456;-88
2023/07/20 09:36:11;;;;;;;2.30;1.83;;;;;;;26.87;31.89;97826.66;5016043;28;20503;-87
2023/07/20 09:38:38;;;;;;;2.40;1.90;;;;;;;25.14;33.76;97829.16;5011685;28;20500;-87
2023/07/20 09:41:06;;;;;;;2.57;1.97;;;;;;;25.39;32.89;97825.97;5014280;28;20455;-87
2023/07/20 09:43:35;;;;;;;3.10;1.80;;;;;;;25.60;31.18;97831.16;5015827;28;20515;-87
2023/07/20 09:46:03;;;;;;;1.63;1.53;;;;;;;24.30;34.23;97825.38;5023200;28;20995;-87
2023/07/20 09:48:30;;;;;;;2.03;1.80;;;;;;;25.50;31.69;97825.81;5022702;28;20456;-88
2023/07/20 09:50:57;;;;;;;2.50;1.70;;;;;;;27.17;29.67;97822.34;5016574;28;20514;-88
2023/07/20 09:53:26;;;;;;;3.77;1.60;;;;;;;27.73;28.21;97815.38;5015519;28;20543;-87
2023/07/20 09:55:53;;;;;;;1.77;1.67;;;;;;;27.85;27.96;97807.28;5014386;28;20460;-88
2023/07/20 09:58:20;;;;;;;2.07;1.80;;;;;;;26.51;29.70;97823.03;5023792;28;20513;-87
2023/07/20 10:00:50;;;;;;;1.83;1.60;;;;;;;27.77;28.17;97806.09;5011081;28;20508;-87
2023/07/20 10:03:20;;;;;;;2.77;2.10;;;;;;;25.98;29.25;97816.06;5012523;28;20459;-87
2023/07/20 10:05:50;;;;;;;1.70;1.60;;;;;;;26.59;27.54;97814.81;5019482;28;20492;-87
2023/07/20 10:08:18;;;;;;;1.40;1.30;;;;;;;27.04;25.86;97820.44;5014673;28;20552;-87
2023/07/20 10:10:45;;;;;;;2.80;1.47;;;;;;;27.83;24.63;97815.13;5020434;28;20468;-87
2023/07/20 10:13:18;;;;;;;1.67;1.57;;;;;;;27.81;24.84;97814.63;5020163;28;20608;-88
2023/07/20 10:15:48;;;;;;;4.13;1.73;;;;;;;28.73;24.62;97810.00;5020995;28;20532;-88
2023/07/20 10:18:23;;;;;;;1.90;1.80;;;;;;;28.95;25.58;97787.59;5017723;28;20536;-88
2023/07/20 10:20:50;;;;;;;2.40;1.80;;;;;;;29.84;24.81;97807.50;5017482;28;20539;-87
2023/07/20 10:23:18;;;;;;;2.03;1.70;;;;;;;27.49;27.10;97804.59;5024432;28;20471;-86
2023/07/20 10:25:45;;;;;;;2.03;1.83;;;;;;;27.17;27.40;97797.34;5033845;28;20492;-87
2023/07/20 10:28:12;;;;;;;1.87;1.70;;;;;;;27.69;26.12;97809.63;5030704;28;20496;-88
2023/07/20 10:30:39;;;;;;;2.60;1.50;;;;;;;27.82;25.67;97796.78;5026358;28;20452;-87
2023/07/20 10:33:07;;;;;;;1.67;1.47;;;;;;;28.36;25.51;97789.13;5018422;28;20508;-87
2023/07/20 10:35:53;;;;;;;2.47;1.63;;;;;;;28.07;26.34;97787.72;5021245;28;20464;-87
2023/07/20 10:38:19;;;;;;;1.60;1.50;;;;;;;27.86;27.33;97792.22;5024755;28;20508;-88
2023/07/20 10:40:55;;;;;;;1.87;1.77;;;;;;;27.70;27.58;97783.47;5025700;28;20459;-87
2023/07/20 10:43:43;;;;;;;1.60;1.40;;;;;;;27.35;26.83;97793.53;5018245;28;20448;-87
2023/07/20 10:46:44;;;;;;;1.93;1.83;;;;;;;27.74;27.49;97778.09;5020323;28;20472;-87
2023/07/20 10:49:15;;;;;;;3.57;1.70;;;;;;;27.14;26.51;97786.03;5016704;28;20461;-87
2023/07/20 10:51:44;;;;;;;1.80;1.47;;;;;;;28.10;24.81;97775.94;5034881;28;21009;-87
2023/07/20 10:54:36;;;;;;;1.87;1.57;;;;;;;28.66;23.93;97784.59;5031314;28;20485;-89
2023/07/20 10:57:31;;;;;;;1.80;1.37;;;;;;;29.11;23.49;97773.97;5026282;28;20445;-87
2023/07/20 11:00:22;;;;;;;1.70;1.50;;;;;;;28.94;23.93;97772.00;5025668;28;20459;-87
2023/07/20 11:02:49;;;;;;;2.00;1.43;;;;;;;29.23;23.27;97773.31;5020061;28;20472;-88
2023/07/20 11:05:43;;;;;;;1.70;1.60;;;;;;;28.29;23.81;97777.63;5020263;28;20576;-88
2023/07/20 11:08:13;;;;;;;1.97;1.40;;;;;;;27.47;24.88;97761.56;4985385;28;21168;-89
2023/07/20 11:10:39;;;;;;;1.93;1.70;;;;;;;28.15;24.05;97772.19;5021945;28;20805;-87
2023/07/20 11:13:21;;;;;;;3.00;1.80;;;;;;;27.29;25.89;97766.22;5024124;28;20459;-88
2023/07/20 11:15:48;;;;;;;2.37;1.60;;;;;;;27.90;25.67;97770.97;5018479;28;20481;-88
2023/07/20 11:18:15;;;;;;;2.37;1.60;;;;;;;28.42;24.85;97771.13;5024464;28;20452;-86
2023/07/20 11:20:42;;;;;;;2.00;1.50;;;;;;;29.02;24.25;97776.75;5023254;28;20568;-86
2023/07/20 11:23:10;;;;;;;2.87;1.83;;;;;;;29.11;22.77;97776.75;5027447;28;20456;-86
2023/07/20 11:25:40;;;;;;;1.60;1.50;;;;;;;29.65;21.22;97775.19;5025593;28;20490;-87
2023/07/20 11:28:10;;;;;;;2.00;1.27;;;;;;;30.30;22.11;97773.13;5024685;28;20463;-86
2023/07/20 11:30:38;;;;;;;1.60;1.50;;;;;;;30.50;20.66;97761.19;5014749;28;20524;-86
2023/07/20 11:33:05;;;;;;;2.37;1.30;;;;;;;29.56;22.06;97765.25;5023222;28;20579;-86
2023/07/20 11:35:31;;;;;;;1.70;1.60;;;;;;;29.58;21.41;97758.16;5021886;28;20451;-87
2023/07/20 11:37:58;;;;;;;1.33;1.23;;;;;;;28.71;20.93;97762.97;5043775;28;20475;-86
2023/07/20 11:40:25;;;;;;;1.40;1.30;;;;;;;30.22;19.38;97766.44;5042980;28;20499;-86